createdAt,value
2022-12-28T00:01:24.985Z,8.7
2022-12-28T00:06:27.110Z,9.9
2022-12-28T00:11:30.855Z,8.2
2022-12-28T00:16:33.535Z,8.2
2022-12-28T00:21:36.397Z,8.6
2022-12-28T00:26:38.543Z,10.1
2022-12-28T00:31:40.617Z,9.6
2022-12-28T00:37:08.101Z,7.1
2022-12-28T00:41:44.971Z,7.1
2022-12-28T00:46:48.045Z,6.3
2022-12-28T00:51:50.337Z,8
2022-12-28T00:56:52.461Z,5.3
2022-12-28T01:01:55.761Z,7.2
2022-12-28T01:06:58.901Z,6.7
2022-12-28T01:12:00.941Z,6.5
2022-12-28T01:17:02.928Z,6.7
2022-12-28T01:22:06.597Z,6.3
2022-12-28T01:27:08.647Z,6.3
2022-12-28T01:32:11.028Z,13.1
2022-12-28T01:37:11.422Z,6.8
2022-12-28T01:42:13.444Z,7.5
2022-12-28T01:47:15.495Z,7.5
2022-12-28T01:52:19.097Z,6.7
2022-12-28T01:57:21.614Z,6.1
2022-12-28T02:02:23.764Z,5.6
2022-12-28T02:07:26.819Z,5.5
2022-12-28T02:12:28.807Z,6.2
2022-12-28T02:17:31.947Z,5.6
2022-12-28T02:22:36.049Z,6.7
2022-12-28T02:27:38.428Z,5.7
2022-12-28T02:32:40.670Z,5.5
2022-12-28T02:37:42.950Z,6.5
2022-12-28T02:42:45.247Z,6.2
2022-12-28T02:47:47.410Z,6.3
2022-12-28T02:52:49.594Z,7
2022-12-28T02:57:51.631Z,7.9
2022-12-28T03:02:53.738Z,6.8
2022-12-28T03:07:56.323Z,7.4
2022-12-28T03:12:58.381Z,7.5
2022-12-28T03:18:00.625Z,8.9
2022-12-28T03:23:02.691Z,7.5
2022-12-28T03:28:04.727Z,8.1
2022-12-28T03:34:07.149Z,8.2
2022-12-28T03:39:10.993Z,7.9
2022-12-28T03:44:13.131Z,7.3
2022-12-28T03:49:17.999Z,6.7
2022-12-28T03:54:20.045Z,7.1
2022-12-28T03:59:22.063Z,7.2
2022-12-28T04:04:24.147Z,7.3
2022-12-28T04:09:26.261Z,5.7
2022-12-28T04:14:28.270Z,5
2022-12-28T04:19:30.451Z,5.7
2022-12-28T04:24:33.103Z,5.8
2022-12-28T04:29:35.546Z,8.2
2022-12-28T04:34:40.896Z,7.7
2022-12-28T04:39:54.510Z,6.6
2022-12-28T04:44:49.058Z,7
2022-12-28T04:49:51.205Z,7.1
2022-12-28T04:54:53.788Z,7.6
2022-12-28T04:59:55.851Z,7.5
2022-12-28T05:04:58.197Z,5.8
2022-12-28T05:10:01.963Z,6.7
2022-12-28T05:15:04.306Z,5.8
2022-12-28T05:16:15.789Z,7.6
2022-12-28T05:21:18.496Z,7.6
2022-12-28T05:26:20.590Z,7.5
2022-12-28T05:31:22.674Z,5.9
2022-12-28T05:36:29.072Z,7.2
2022-12-28T05:41:31.966Z,7.6
2022-12-28T05:46:34.043Z,8.3
2022-12-28T05:51:37.340Z,6.7
2022-12-28T05:56:41.778Z,6.7
2022-12-28T06:01:43.913Z,6.6
2022-12-28T06:06:46.925Z,7.8
2022-12-28T06:11:49.942Z,8.2
2022-12-28T06:16:52.483Z,10
2022-12-28T06:21:54.651Z,11.8
2022-12-28T06:26:56.624Z,9.4
2022-12-28T06:31:59.822Z,10.3
2022-12-28T06:37:02.342Z,8.3
2022-12-28T06:42:04.373Z,9.4
2022-12-28T06:47:06.452Z,10.4
2022-12-28T06:52:08.749Z,9
2022-12-28T06:57:11.274Z,9.6
2022-12-28T07:02:13.656Z,9.6
2022-12-28T07:07:17.039Z,9.2
2022-12-28T07:12:19.160Z,11.3
2022-12-28T07:17:21.364Z,12.5
2022-12-28T07:22:25.683Z,10.5
2022-12-28T07:27:27.747Z,12.4
2022-12-28T07:32:29.766Z,11
2022-12-28T07:37:32.132Z,8.5
2022-12-28T07:42:34.294Z,36.8
2022-12-28T07:47:36.394Z,12.5
2022-12-28T07:52:39.026Z,25.9
2022-12-28T07:57:41.221Z,26.8
2022-12-28T08:02:43.200Z,10.6
2022-12-28T08:07:45.619Z,8.8
2022-12-28T08:12:48.575Z,9
2022-12-28T08:17:50.689Z,8.4
2022-12-28T08:22:53.130Z,8.4
2022-12-28T08:27:56.318Z,17.6
2022-12-28T08:32:58.687Z,13.8
2022-12-28T08:38:01.052Z,28.7
2022-12-28T08:43:03.398Z,12.4
2022-12-28T08:48:05.330Z,14.6
2022-12-28T08:53:07.339Z,11.5
2022-12-28T08:58:09.573Z,10.7
2022-12-28T09:03:11.524Z,9.2
2022-12-28T09:08:14.853Z,9.7
2022-12-28T09:13:16.894Z,10.9
2022-12-28T09:18:18.937Z,10.5
2022-12-28T09:23:21.088Z,9.5
2022-12-28T09:28:23.070Z,10.9
2022-12-28T09:33:25.238Z,13
2022-12-28T09:38:28.731Z,13.7
2022-12-28T09:43:31.618Z,9.1
2022-12-28T09:48:33.970Z,8.1
2022-12-28T09:53:36.353Z,7.4
2022-12-28T09:58:38.577Z,8.8
2022-12-28T10:03:38.638Z,12.1
2022-12-28T10:08:40.963Z,8.5
2022-12-28T10:13:54.359Z,11.1
2022-12-28T10:18:48.005Z,8.5
2022-12-28T10:24:21.168Z,8.5
2022-12-28T10:28:53.948Z,6.8
2022-12-28T10:33:55.984Z,7.7
2022-12-28T10:38:57.984Z,15.3
2022-12-28T10:44:29.619Z,3.5
2022-12-28T10:49:03.327Z,5.3
2022-12-28T10:54:05.133Z,5.2
2022-12-28T10:59:08.150Z,6.1
2022-12-28T11:04:10.564Z,7
2022-12-28T11:09:13.832Z,8
2022-12-28T11:14:16.654Z,7.9
2022-12-28T11:19:19.079Z,7.3
2022-12-28T11:24:21.271Z,5.2
2022-12-28T11:29:23.875Z,3.5
2022-12-28T11:34:26.562Z,3.6
2022-12-28T11:39:29.151Z,4.1
2022-12-28T11:44:31.271Z,3.4
2022-12-28T11:49:34.139Z,3.5
2022-12-28T11:54:36.537Z,3.3
2022-12-28T11:59:39.286Z,8.9
2022-12-28T12:04:42.499Z,3.3
2022-12-28T12:09:44.693Z,3.2
2022-12-28T12:14:46.824Z,2.5
2022-12-28T12:19:48.823Z,4.4
2022-12-28T12:24:50.906Z,3.8
2022-12-28T12:29:53.421Z,4.2
2022-12-28T12:34:55.944Z,3.8
2022-12-28T12:39:58.087Z,3.7
2022-12-28T12:45:01.489Z,3.5
2022-12-28T12:50:04.499Z,3.7
2022-12-28T12:55:06.539Z,3.1
2022-12-28T13:00:08.525Z,3.2
2022-12-28T13:05:10.647Z,3.4
2022-12-28T13:10:12.993Z,3.4
2022-12-28T13:15:15.279Z,3.8
2022-12-28T13:20:17.340Z,3.4
2022-12-28T13:25:19.630Z,3.6
2022-12-28T13:30:21.691Z,3.2
2022-12-28T13:35:24.055Z,3.4
2022-12-28T13:40:26.322Z,4.1
2022-12-28T13:45:28.433Z,3.3
2022-12-28T13:50:30.675Z,6.8
2022-12-28T13:55:32.850Z,4.3
2022-12-28T14:00:35.059Z,5.2
2022-12-28T14:05:37.113Z,4.5
2022-12-28T14:10:39.459Z,4.1
2022-12-28T14:15:41.924Z,5
2022-12-28T14:20:45.768Z,4.2
2022-12-28T14:25:48.260Z,3.7
2022-12-28T14:30:50.379Z,3.2
2022-12-28T14:35:52.969Z,6
2022-12-28T14:40:55.186Z,4.4
2022-12-28T15:17:18.509Z,8
2022-12-28T15:22:20.855Z,8.6
2022-12-28T15:27:23.032Z,7.7
2022-12-28T15:32:25.122Z,8.6
2022-12-28T15:37:27.404Z,9.1
2022-12-28T15:42:31.477Z,10.8
2022-12-28T15:47:31.953Z,11
2022-12-28T15:52:34.026Z,12.6
2022-12-28T15:57:36.121Z,12.3
2022-12-28T16:02:38.385Z,11.7
2022-12-28T16:07:41.913Z,11.6
2022-12-28T16:12:44.472Z,11.8
2022-12-28T16:17:53.170Z,9.4
2022-12-28T16:22:49.483Z,9.3
2022-12-28T16:27:51.650Z,10.5
2022-12-28T16:32:53.747Z,9.8
2022-12-28T16:37:55.913Z,11.2
2022-12-28T16:42:58.636Z,14.2
2022-12-28T16:48:00.747Z,13.2
2022-12-28T16:53:02.999Z,12.8
2022-12-28T16:58:05.157Z,14.8
2022-12-28T17:03:07.405Z,16.2
2022-12-28T17:08:09.884Z,14.1
2022-12-28T17:13:12.076Z,15.7
2022-12-28T17:18:14.222Z,13.7
2022-12-28T17:23:16.536Z,14.7
2022-12-28T17:28:18.644Z,13
2022-12-28T17:33:20.822Z,13.1
2022-12-28T17:38:22.890Z,13
2022-12-28T17:43:25.309Z,12.9
2022-12-28T17:48:27.314Z,14.9
2022-12-28T17:53:29.323Z,14.7
2022-12-28T17:58:31.347Z,16
2022-12-28T18:03:34.275Z,15.8
2022-12-28T18:08:36.843Z,15.2
2022-12-28T18:13:38.920Z,13.7
2022-12-28T18:18:40.978Z,13.6
2022-12-28T18:23:43.267Z,13.2
2022-12-28T18:28:48.422Z,13.7
2022-12-28T18:33:50.636Z,14.4
2022-12-28T18:38:53.136Z,13.8
2022-12-28T18:43:55.762Z,13.6
2022-12-28T18:48:57.818Z,11.6
2022-12-28T18:54:00.039Z,12.8
2022-12-28T18:59:02.308Z,14.1
2022-12-28T19:04:04.652Z,13.6
2022-12-28T19:09:08.191Z,27.2
2022-12-28T19:14:08.628Z,16.6
2022-12-28T19:19:10.590Z,17.2
2022-12-28T19:24:12.759Z,18.4
2022-12-28T19:29:15.267Z,19.8
2022-12-28T19:34:17.335Z,22.2
2022-12-28T19:39:19.535Z,20
2022-12-28T19:44:21.835Z,21.5
2022-12-28T19:49:25.979Z,21.8
2022-12-28T19:54:28.232Z,21.2
2022-12-28T19:59:30.236Z,19
2022-12-28T20:04:32.279Z,19.6
2022-12-28T20:09:36.041Z,19.4
2022-12-28T20:14:38.090Z,17.4
2022-12-28T20:19:40.277Z,19.2
2022-12-28T20:24:43.069Z,19.1
2022-12-28T20:29:45.141Z,19.1
2022-12-28T20:34:47.255Z,16.9
2022-12-28T20:39:49.312Z,18.9
2022-12-28T20:44:51.572Z,17.3
2022-12-28T20:49:53.589Z,17.8
2022-12-28T20:54:55.782Z,17.4
2022-12-28T20:59:57.796Z,18.4
2022-12-28T21:05:00.266Z,17.2
2022-12-28T21:10:02.619Z,18.9
2022-12-28T21:15:04.732Z,18.7
2022-12-28T21:20:06.763Z,20.2
2022-12-28T21:25:09.061Z,19
2022-12-28T21:30:11.297Z,19.8
2022-12-28T21:35:13.495Z,21.1
2022-12-28T21:40:15.637Z,20.5
2022-12-28T21:45:17.940Z,19.7
2022-12-28T21:50:20.643Z,19.6
2022-12-28T21:55:22.782Z,20.8
2022-12-28T22:00:24.973Z,21.5
2022-12-28T22:05:27.207Z,20.1
2022-12-28T22:10:29.301Z,20.3
2022-12-28T22:15:31.552Z,22
2022-12-28T22:20:34.068Z,22.1
2022-12-28T22:25:36.133Z,20.5
2022-12-28T22:30:38.183Z,20
2022-12-28T22:35:40.276Z,20
2022-12-28T22:40:42.318Z,18.7
2022-12-28T22:45:45.011Z,20
2022-12-28T22:50:47.237Z,25.1
2022-12-28T22:55:49.269Z,23.3
2022-12-28T23:00:51.318Z,19.1
2022-12-28T23:05:53.766Z,21.5
2022-12-28T23:10:56.043Z,21.2
2022-12-28T23:15:58.166Z,20.1
2022-12-28T23:21:00.513Z,20.6
2022-12-28T23:26:02.704Z,18.6
2022-12-28T23:31:05.060Z,19.1
2022-12-28T23:36:07.766Z,20.8
2022-12-28T23:41:10.060Z,22
2022-12-28T23:46:12.291Z,21.9
2022-12-28T23:51:14.655Z,23.1
2022-12-28T23:56:16.678Z,22.1
